Time;durP1;ratioP1;P1;durP2;ratioP2;P2;SDS_P1;SDS_P2;PMS_P1;PMS_P2;Temp;Humidity;BMP_temperature;BMP_pressure;BME280_temperature;BME280_humidity;BME280_pressure;Samples;Min_cycle;Max_cycle;Signal;HPM_P1;HPM_P2
2023/10/06 00:02:31;;;;;;;359.93;314.67;;;;;;;;;;4931726;29;20973;-76
2023/10/06 00:04:58;;;;;;;94.63;87.95;;;;;;;;;;4929886;29;20467;-77
2023/10/06 00:07:28;;;;;;;7.43;3.70;;;;;;;;;;4913656;29;20439;-76
2023/10/06 00:09:55;;;;;;;7.15;3.63;;;;;;;;;;4931354;29;20467;-77
2023/10/06 00:12:25;;;;;;;55.07;50.70;;;;;;;;;;4932016;29;20440;-77
2023/10/06 00:14:53;;;;;;;64.25;57.85;;;;;;;;;;4915603;29;20437;-77
2023/10/06 00:17:21;;;;;;;298.30;266.23;;;;;;;;;;4929582;29;20446;-77
2023/10/06 00:19:53;;;;;;;127.77;117.07;;;;;;;;;;4924264;29;20527;-77
2023/10/06 00:22:21;;;;;;;296.42;267.05;;;;;;;;;;4931044;29;20443;-76
2023/10/06 00:24:55;;;;;;;191.70;172.93;;;;;;;;;;4927377;29;20439;-77
2023/10/06 00:27:29;;;;;;;6.80;3.90;;;;;;;;;;4927142;29;20454;-77
2023/10/06 00:30:00;;;;;;;91.78;83.15;;;;;;;;;;4928660;29;20450;-76
2023/10/06 00:32:27;;;;;;;64.95;59.15;;;;;;;;;;4930634;29;20502;-77
2023/10/06 00:34:55;;;;;;;644.20;376.05;;;;;;;;;;4928836;29;20469;-76
2023/10/06 00:37:23;;;;;;;665.07;376.80;;;;;;;;;;4913139;29;20898;-76
2023/10/06 00:39:54;;;;;;;619.35;374.95;;;;;;;;;;4924536;29;20443;-77
2023/10/06 00:42:26;;;;;;;609.00;369.02;;;;;;;;;;4917202;29;20449;-77
2023/10/06 00:44:54;;;;;;;772.90;381.13;;;;;;;;;;4914512;29;20444;-77
2023/10/06 00:47:21;;;;;;;770.00;379.20;;;;;;;;;;4910428;29;20519;-77
2023/10/06 00:49:51;;;;;;;770.65;376.38;;;;;;;;;;4927339;29;20439;-77
2023/10/06 00:52:18;;;;;;;769.40;381.63;;;;;;;;;;4931503;29;20435;-77
2023/10/06 00:54:46;;;;;;;767.40;378.27;;;;;;;;;;4925698;29;20441;-76
2023/10/06 00:57:19;;;;;;;739.35;361.30;;;;;;;;;;4925683;29;20553;-77
2023/10/06 00:59:46;;;;;;;731.05;352.90;;;;;;;;;;4929207;29;20456;-77
2023/10/06 01:02:28;;;;;;;720.40;353.10;;;;;;;;;;4930428;29;20445;-76
2023/10/06 01:04:58;;;;;;;712.83;349.30;;;;;;;;;;4922711;29;20821;-77
2023/10/06 01:07:25;;;;;;;728.53;361.48;;;;;;;;;;4930682;29;20435;-76
2023/10/06 01:09:56;;;;;;;734.38;371.55;;;;;;;;;;4929653;29;21186;-77
2023/10/06 01:12:26;;;;;;;741.67;371.98;;;;;;;;;;4931986;29;20443;-76
2023/10/06 01:15:17;;;;;;;748.60;372.83;;;;;;;;;;4928560;29;20500;-77
2023/10/06 01:17:40;;;;;;;684.73;371.30;;;;;;;;;;4922788;29;20443;-77
2023/10/06 01:20:10;;;;;;;639.38;367.75;;;;;;;;;;4929382;29;20915;-77
2023/10/06 01:22:44;;;;;;;632.70;372.00;;;;;;;;;;4921680;29;20790;-77
2023/10/06 01:25:13;;;;;;;644.17;378.70;;;;;;;;;;4922234;29;20881;-77
2023/10/06 01:27:43;;;;;;;591.58;367.38;;;;;;;;;;4928084;29;20440;-76
2023/10/06 01:30:17;;;;;;;516.30;350.25;;;;;;;;;;4926907;29;20526;-76
2023/10/06 01:32:51;;;;;;;629.70;373.50;;;;;;;;;;4932739;29;20921;-76
2023/10/06 01:35:23;;;;;;;444.20;347.80;;;;;;;;;;4926894;29;20441;-77
2023/10/06 01:37:57;;;;;;;96.72;86.68;;;;;;;;;;4933864;29;20439;-76
2023/10/06 01:42:52;;;;;;;163.43;144.93;;;;;;;;;;4925334;29;20543;-76
2023/10/06 01:45:22;;;;;;;97.38;87.78;;;;;;;;;;4934067;29;20522;-77
2023/10/06 01:47:57;;;;;;;363.98;304.35;;;;;;;;;;4927449;29;20437;-77
2023/10/06 01:50:27;;;;;;;105.72;95.43;;;;;;;;;;4934541;29;20441;-77
2023/10/06 01:52:58;;;;;;;34.85;31.02;;;;;;;;;;4924115;29;20449;-77
2023/10/06 01:55:26;;;;;;;20.23;8.98;;;;;;;;;;4921648;29;20468;-77
2023/10/06 01:57:54;;;;;;;23.00;5.40;;;;;;;;;;4930649;29;20435;-77
2023/10/06 02:00:26;;;;;;;28.50;5.30;;;;;;;;;;4930292;29;20538;-78
2023/10/06 02:02:53;;;;;;;98.50;7.83;;;;;;;;;;4930143;29;20518;-77
2023/10/06 02:05:21;;;;;;;131.40;118.90;;;;;;;;;;4930388;29;20436;-78
2023/10/06 02:07:48;;;;;;;55.70;51.37;;;;;;;;;;4930566;29;20793;-78
2023/10/06 02:10:18;;;;;;;356.25;313.40;;;;;;;;;;4934157;29;20443;-78
2023/10/06 02:12:45;;;;;;;571.85;360.77;;;;;;;;;;4926068;29;20517;-77
2023/10/06 02:15:12;;;;;;;311.75;273.85;;;;;;;;;;4917450;29;20482;-78
2023/10/06 02:17:44;;;;;;;469.98;348.05;;;;;;;;;;4926630;29;20445;-78
2023/10/06 02:23:00;;;;;;;515.50;349.20;;;;;;;;;;4927698;29;20513;-78
2023/10/06 02:25:31;;;;;;;480.67;347.95;;;;;;;;;;4923798;29;21531;-78
2023/10/06 02:28:04;;;;;;;506.88;348.83;;;;;;;;;;4932414;29;20435;-78
2023/10/06 02:30:37;;;;;;;466.20;348.33;;;;;;;;;;4931984;29;20815;-78
2023/10/06 02:33:07;;;;;;;203.63;183.32;;;;;;;;;;4932006;29;20471;-78
2023/10/06 02:35:35;;;;;;;447.85;345.80;;;;;;;;;;4932921;29;20439;-77
2023/10/06 02:38:06;;;;;;;695.33;372.53;;;;;;;;;;4933314;29;20474;-78
2023/10/06 02:40:45;;;;;;;767.63;371.00;;;;;;;;;;4932136;29;20593;-78
2023/10/06 02:43:20;;;;;;;755.43;368.10;;;;;;;;;;4928826;29;21035;-78
2023/10/06 02:45:47;;;;;;;752.90;362.77;;;;;;;;;;4932533;29;20447;-78
2023/10/06 02:48:22;;;;;;;746.10;356.98;;;;;;;;;;4930581;29;21384;-78
2023/10/06 02:50:55;;;;;;;756.72;369.67;;;;;;;;;;4931302;29;20518;-78
2023/10/06 02:53:23;;;;;;;693.85;363.10;;;;;;;;;;4931643;29;20486;-77
2023/10/06 02:55:59;;;;;;;659.35;360.00;;;;;;;;;;4931243;29;20436;-78
2023/10/06 02:58:30;;;;;;;510.80;343.02;;;;;;;;;;4928063;29;21112;-78
2023/10/06 03:00:58;;;;;;;566.28;347.60;;;;;;;;;;4932080;29;22701;-78
2023/10/06 03:03:29;;;;;;;732.73;373.83;;;;;;;;;;4932366;29;20865;-78
2023/10/06 03:06:06;;;;;;;739.67;365.00;;;;;;;;;;4930782;29;20527;-78
2023/10/06 03:08:35;;;;;;;731.38;367.42;;;;;;;;;;4924345;29;20467;-79
2023/10/06 03:11:03;;;;;;;733.87;362.40;;;;;;;;;;4923729;29;20518;-79
2023/10/06 03:13:36;;;;;;;718.47;368.33;;;;;;;;;;4929851;29;20467;-78
2023/10/06 03:16:10;;;;;;;739.85;371.75;;;;;;;;;;4929236;29;20957;-78
2023/10/06 03:18:38;;;;;;;740.97;369.33;;;;;;;;;;4931916;29;21248;-78
2023/10/06 03:23:38;;;;;;;759.63;378.52;;;;;;;;;;4929567;29;20558;-78
2023/10/06 03:29:01;;;;;;;768.90;383.73;;;;;;;;;;4932268;29;20539;-78
2023/10/06 03:31:47;;;;;;;751.97;362.15;;;;;;;;;;4927020;29;20445;-78
2023/10/06 03:34:15;;;;;;;753.40;365.13;;;;;;;;;;4926485;29;20531;-78
2023/10/06 03:36:51;;;;;;;737.45;367.77;;;;;;;;;;4932265;29;20502;-78
2023/10/06 03:39:22;;;;;;;753.63;375.33;;;;;;;;;;4932161;29;21265;-78
2023/10/06 03:41:55;;;;;;;762.92;377.27;;;;;;;;;;4930022;29;21194;-78
2023/10/06 03:44:26;;;;;;;764.03;371.90;;;;;;;;;;4920782;29;20877;-78
2023/10/06 03:46:55;;;;;;;747.78;368.27;;;;;;;;;;4922566;29;20932;-78
2023/10/06 03:49:22;;;;;;;743.88;367.00;;;;;;;;;;4926623;29;20532;-79
2023/10/06 03:51:51;;;;;;;678.50;351.83;;;;;;;;;;4909464;29;20440;-79
2023/10/06 03:54:18;;;;;;;715.90;354.63;;;;;;;;;;4930940;29;20467;-78
2023/10/06 03:56:49;;;;;;;735.65;354.67;;;;;;;;;;4931250;29;20442;-79
2023/10/06 03:59:21;;;;;;;747.40;360.45;;;;;;;;;;4931547;29;20447;-78
2023/10/06 04:01:48;;;;;;;689.55;357.85;;;;;;;;;;4932087;29;20478;-78
2023/10/06 04:04:20;;;;;;;572.42;361.35;;;;;;;;;;4926015;29;20933;-78
2023/10/06 04:06:47;;;;;;;440.75;342.80;;;;;;;;;;4920645;29;20439;-78
2023/10/06 04:09:26;;;;;;;13.43;5.20;;;;;;;;;;4928186;29;20866;-78
2023/10/06 04:11:54;;;;;;;67.85;62.47;;;;;;;;;;4928897;29;20471;-78
2023/10/06 04:14:27;;;;;;;152.95;139.38;;;;;;;;;;4917038;29;20530;-78
2023/10/06 04:17:01;;;;;;;116.25;103.68;;;;;;;;;;4914802;29;20440;-79
2023/10/06 04:19:29;;;;;;;209.63;188.30;;;;;;;;;;4928718;29;20448;-79
2023/10/06 04:21:56;;;;;;;67.07;60.35;;;;;;;;;;4931553;29;20449;-78
2023/10/06 04:24:23;;;;;;;239.25;213.25;;;;;;;;;;4911097;29;20443;-78
2023/10/06 04:26:54;;;;;;;148.00;133.60;;;;;;;;;;4931964;29;20446;-79
2023/10/06 04:29:25;;;;;;;289.63;257.08;;;;;;;;;;4931188;29;20495;-79
2023/10/06 04:31:53;;;;;;;53.03;48.05;;;;;;;;;;4930270;29;20930;-79
2023/10/06 04:34:27;;;;;;;447.90;325.17;;;;;;;;;;4927331;29;20439;-79
2023/10/06 04:36:56;;;;;;;270.45;244.18;;;;;;;;;;4908422;29;20905;-78
2023/10/06 04:39:24;;;;;;;306.20;274.40;;;;;;;;;;4926081;29;21015;-79
2023/10/06 04:41:51;;;;;;;344.30;306.23;;;;;;;;;;4931911;29;20450;-79
2023/10/06 04:44:18;;;;;;;151.90;139.38;;;;;;;;;;4925035;29;20868;-78
2023/10/06 04:46:45;;;;;;;276.23;248.25;;;;;;;;;;4931267;29;20461;-79
2023/10/06 04:49:14;;;;;;;243.52;207.95;;;;;;;;;;4914955;29;20502;-79
2023/10/06 04:51:42;;;;;;;276.83;248.93;;;;;;;;;;4926790;29;20467;-79
2023/10/06 04:54:09;;;;;;;331.58;280.08;;;;;;;;;;4932250;29;20534;-78
2023/10/06 04:56:36;;;;;;;373.65;320.60;;;;;;;;;;4932040;29;20554;-79
2023/10/06 04:59:06;;;;;;;312.90;269.77;;;;;;;;;;4924751;29;20446;-79
2023/10/06 05:01:34;;;;;;;153.65;134.85;;;;;;;;;;4931569;29;20450;-79
2023/10/06 05:04:06;;;;;;;79.60;58.30;;;;;;;;;;4919761;29;20443;-79
2023/10/06 05:06:36;;;;;;;226.50;203.73;;;;;;;;;;4931966;29;20502;-79
2023/10/06 05:09:07;;;;;;;373.20;300.67;;;;;;;;;;4925998;29;20441;-79
2023/10/06 05:11:37;;;;;;;476.77;334.60;;;;;;;;;;4936109;29;20474;-79
2023/10/06 05:14:05;;;;;;;461.92;333.58;;;;;;;;;;4931161;29;20435;-79
2023/10/06 05:16:34;;;;;;;500.63;333.48;;;;;;;;;;4927756;29;20914;-79
2023/10/06 05:19:03;;;;;;;558.97;344.90;;;;;;;;;;4931813;29;20435;-79
2023/10/06 05:21:31;;;;;;;651.73;351.07;;;;;;;;;;4934488;29;21082;-79
2023/10/06 05:23:58;;;;;;;595.85;345.27;;;;;;;;;;4928812;29;21034;-79
2023/10/06 05:26:28;;;;;;;358.40;304.23;;;;;;;;;;4935357;29;20439;-79
2023/10/06 05:28:55;;;;;;;487.75;336.73;;;;;;;;;;4924996;29;20460;-76
2023/10/06 05:31:25;;;;;;;447.90;326.73;;;;;;;;;;4911346;29;20433;-76
2023/10/06 05:33:52;;;;;;;416.67;329.85;;;;;;;;;;4930561;29;20562;-76
2023/10/06 05:36:20;;;;;;;374.95;286.33;;;;;;;;;;4928702;29;20469;-76
2023/10/06 05:38:48;;;;;;;311.95;277.42;;;;;;;;;;4925914;29;20560;-75
2023/10/06 05:41:19;;;;;;;157.77;144.13;;;;;;;;;;4926497;29;20466;-76
2023/10/06 05:43:48;;;;;;;236.32;212.75;;;;;;;;;;4923478;29;20586;-76
2023/10/06 05:46:22;;;;;;;350.85;312.52;;;;;;;;;;4901612;29;20481;-75
2023/10/06 05:48:51;;;;;;;373.65;330.10;;;;;;;;;;4927476;29;20977;-75
2023/10/06 05:51:21;;;;;;;513.83;350.00;;;;;;;;;;4927167;29;20946;-75
2023/10/06 05:53:48;;;;;;;539.70;354.60;;;;;;;;;;4927314;29;20443;-76
2023/10/06 05:56:16;;;;;;;423.58;342.52;;;;;;;;;;4929687;29;20565;-75
2023/10/06 05:58:43;;;;;;;591.22;358.45;;;;;;;;;;4911504;29;20518;-75
2023/10/06 06:01:13;;;;;;;681.15;366.40;;;;;;;;;;4928374;29;20450;-75
2023/10/06 06:03:47;;;;;;;561.30;348.20;;;;;;;;;;4925155;29;20453;-76
2023/10/06 06:06:22;;;;;;;548.40;354.92;;;;;;;;;;4925580;29;20897;-75
2023/10/06 06:08:51;;;;;;;542.55;350.05;;;;;;;;;;4922113;29;20442;-76
2023/10/06 06:11:19;;;;;;;361.98;321.83;;;;;;;;;;4930921;29;20443;-75
2023/10/06 06:13:47;;;;;;;432.88;334.80;;;;;;;;;;4924058;29;20499;-76
2023/10/06 06:16:32;;;;;;;452.80;335.60;;;;;;;;;;4920322;29;20451;-76
2023/10/06 06:18:59;;;;;;;483.13;331.77;;;;;;;;;;4923178;29;20471;-75
2023/10/06 06:21:26;;;;;;;468.70;334.02;;;;;;;;;;4931410;29;20479;-75
2023/10/06 06:23:57;;;;;;;522.97;342.25;;;;;;;;;;4898074;29;20997;-76
2023/10/06 06:26:24;;;;;;;518.85;334.10;;;;;;;;;;4925577;29;20519;-75
2023/10/06 06:28:52;;;;;;;508.52;337.25;;;;;;;;;;4904504;29;20446;-75
2023/10/06 06:31:21;;;;;;;470.15;316.92;;;;;;;;;;4927944;29;20439;-75
2023/10/06 06:33:56;;;;;;;481.17;323.90;;;;;;;;;;4916998;29;20435;-77
2023/10/06 06:36:29;;;;;;;341.77;302.15;;;;;;;;;;4923964;29;21007;-76
2023/10/06 06:38:58;;;;;;;234.52;212.23;;;;;;;;;;4911097;29;20546;-75
2023/10/06 06:41:26;;;;;;;198.32;178.82;;;;;;;;;;4925129;29;20486;-76
2023/10/06 06:43:58;;;;;;;154.88;141.55;;;;;;;;;;4923220;29;20439;-75
2023/10/06 06:46:26;;;;;;;285.05;257.25;;;;;;;;;;4930730;29;20474;-75
2023/10/06 06:48:54;;;;;;;429.70;347.75;;;;;;;;;;4930312;29;20440;-76
2023/10/06 06:51:27;;;;;;;476.73;359.67;;;;;;;;;;4931363;29;20439;-76
2023/10/06 06:53:56;;;;;;;436.98;340.33;;;;;;;;;;4923749;29;20960;-75
2023/10/06 06:56:28;;;;;;;490.60;350.73;;;;;;;;;;4909503;29;20444;-75
2023/10/06 06:58:56;;;;;;;458.23;343.33;;;;;;;;;;4899989;29;20443;-76
2023/10/06 07:01:24;;;;;;;535.28;357.42;;;;;;;;;;4925650;29;20443;-75
2023/10/06 07:03:51;;;;;;;579.13;373.20;;;;;;;;;;4929525;29;20517;-75
2023/10/06 07:06:26;;;;;;;650.58;384.98;;;;;;;;;;4926161;29;20527;-75
2023/10/06 07:08:57;;;;;;;740.75;392.08;;;;;;;;;;4920249;29;20473;-75
2023/10/06 07:11:24;;;;;;;692.35;395.75;;;;;;;;;;4920301;29;20495;-75
2023/10/06 07:13:52;;;;;;;685.27;398.40;;;;;;;;;;4919669;29;20440;-76
2023/10/06 07:16:21;;;;;;;770.75;429.58;;;;;;;;;;4930448;29;20526;-75
2023/10/06 07:18:48;;;;;;;685.23;419.37;;;;;;;;;;4928038;29;20440;-75
2023/10/06 07:21:17;;;;;;;641.20;419.10;;;;;;;;;;4925680;29;20728;-75
2023/10/06 07:23:45;;;;;;;557.78;395.25;;;;;;;;;;4925377;29;20435;-75
2023/10/06 07:26:13;;;;;;;542.30;399.02;;;;;;;;;;4925879;29;20476;-75
2023/10/06 07:28:40;;;;;;;475.48;401.15;;;;;;;;;;4921008;29;20525;-75
2023/10/06 07:31:12;;;;;;;520.85;414.30;;;;;;;;;;4920004;29;20440;-75
2023/10/06 07:33:41;;;;;;;625.65;437.55;;;;;;;;;;4922446;29;20453;-75
2023/10/06 07:36:17;;;;;;;693.65;459.65;;;;;;;;;;4922933;29;20439;-75
2023/10/06 07:38:48;;;;;;;684.10;476.83;;;;;;;;;;4909444;29;20455;-75
2023/10/06 07:41:19;;;;;;;665.03;492.30;;;;;;;;;;4914216;29;20472;-74
2023/10/06 07:43:48;;;;;;;650.93;492.53;;;;;;;;;;4925698;29;20493;-74
2023/10/06 07:46:16;;;;;;;714.75;511.48;;;;;;;;;;4922704;29;20435;-74
2023/10/06 07:48:50;;;;;;;816.45;514.08;;;;;;;;;;4917940;29;20462;-75
2023/10/06 07:51:17;;;;;;;886.38;496.52;;;;;;;;;;4915932;29;20435;-75
2023/10/06 07:53:44;;;;;;;896.63;512.72;;;;;;;;;;4921596;29;20957;-75
2023/10/06 07:56:14;;;;;;;912.28;519.88;;;;;;;;;;4925687;29;20441;-74
2023/10/06 07:58:41;;;;;;;913.50;545.70;;;;;;;;;;4925099;29;20906;-75
2023/10/06 08:01:12;;;;;;;919.03;538.83;;;;;;;;;;4926251;29;20557;-75
2023/10/06 08:03:45;;;;;;;920.50;549.37;;;;;;;;;;4923976;29;20473;-75
2023/10/06 08:06:13;;;;;;;935.60;582.42;;;;;;;;;;4925356;29;20455;-75
2023/10/06 08:08:41;;;;;;;942.95;593.17;;;;;;;;;;4925386;29;20494;-74
2023/10/06 08:11:09;;;;;;;935.15;593.10;;;;;;;;;;4932002;29;20436;-74
2023/10/06 08:13:38;;;;;;;923.50;549.97;;;;;;;;;;4924309;29;20439;-74
2023/10/06 08:16:06;;;;;;;904.17;541.05;;;;;;;;;;4910242;29;20446;-75
2023/10/06 08:18:34;;;;;;;894.33;518.63;;;;;;;;;;4925356;29;20912;-74
2023/10/06 08:21:01;;;;;;;911.17;553.75;;;;;;;;;;4929142;29;20443;-75
2023/10/06 08:23:31;;;;;;;914.13;552.50;;;;;;;;;;4926668;29;20446;-75
2023/10/06 08:26:07;;;;;;;935.53;588.03;;;;;;;;;;4927341;29;20447;-76
2023/10/06 08:28:35;;;;;;;917.70;578.73;;;;;;;;;;4922565;29;20520;-75
2023/10/06 08:31:02;;;;;;;930.60;593.08;;;;;;;;;;4925719;29;20522;-75
2023/10/06 08:33:31;;;;;;;939.40;601.70;;;;;;;;;;4928143;29;20447;-73
2023/10/06 08:36:00;;;;;;;954.47;652.00;;;;;;;;;;4922325;29;20474;-73
2023/10/06 08:38:34;;;;;;;957.08;638.30;;;;;;;;;;4909802;29;20450;-73
2023/10/06 08:41:02;;;;;;;931.00;597.28;;;;;;;;;;4921337;29;20443;-73
2023/10/06 08:43:32;;;;;;;945.28;621.22;;;;;;;;;;4931902;29;20439;-73
2023/10/06 08:46:00;;;;;;;964.60;641.47;;;;;;;;;;4914091;29;20435;-73
2023/10/06 08:48:31;;;;;;;964.17;651.65;;;;;;;;;;4926105;29;20436;-76
2023/10/06 08:51:04;;;;;;;935.10;620.30;;;;;;;;;;4931959;29;20431;-76
2023/10/06 08:53:32;;;;;;;958.85;655.80;;;;;;;;;;4926348;29;20461;-74
2023/10/06 08:56:02;;;;;;;960.40;662.63;;;;;;;;;;4931167;29;21357;-73
2023/10/06 08:58:29;;;;;;;986.60;708.10;;;;;;;;;;4928221;29;20444;-73
2023/10/06 09:00:59;;;;;;;987.78;716.63;;;;;;;;;;4926877;29;20965;-74
2023/10/06 09:03:27;;;;;;;979.10;718.67;;;;;;;;;;4926969;29;20480;-73
2023/10/06 09:05:55;;;;;;;972.20;742.15;;;;;;;;;;4925510;29;20443;-73
2023/10/06 09:08:23;;;;;;;938.67;743.10;;;;;;;;;;4925794;29;20519;-74
2023/10/06 09:10:52;;;;;;;907.73;759.67;;;;;;;;;;4932074;29;20497;-73
2023/10/06 09:13:20;;;;;;;856.33;762.38;;;;;;;;;;4923132;29;20446;-74
2023/10/06 09:15:55;;;;;;;981.50;792.80;;;;;;;;;;4930505;29;20435;-74
2023/10/06 09:18:27;;;;;;;891.37;795.57;;;;;;;;;;4929009;29;20441;-73
2023/10/06 09:20:56;;;;;;;850.25;768.00;;;;;;;;;;4929026;29;20435;-73
2023/10/06 09:23:32;;;;;;;393.60;360.30;;;;;;;;;;4923111;29;20944;-73
2023/10/06 09:26:00;;;;;;;176.32;163.25;;;;;;;;;;4926323;29;20440;-73
2023/10/06 09:28:31;;;;;;;91.28;84.43;;;;;;;;;;4924584;29;20805;-74
2023/10/06 09:31:05;;;;;;;4.57;4.18;;;;;;;;;;4896882;29;20437;-74
2023/10/06 09:33:41;;;;;;;5.22;3.60;;;;;;;;;;4922942;29;20528;-73
2023/10/06 09:36:11;;;;;;;184.77;169.75;;;;;;;;;;4911524;29;20521;-74
2023/10/06 09:38:40;;;;;;;809.63;739.27;;;;;;;;;;4932128;29;20444;-73
2023/10/06 09:41:09;;;;;;;431.77;393.67;;;;;;;;;;4923475;29;20439;-73
2023/10/06 09:43:39;;;;;;;370.35;339.33;;;;;;;;;;4925661;29;20454;-73
2023/10/06 09:46:06;;;;;;;331.63;304.95;;;;;;;;;;4923205;29;20538;-75
2023/10/06 09:48:36;;;;;;;737.25;673.80;;;;;;;;;;4928335;29;20524;-75
2023/10/06 09:51:06;;;;;;;603.33;550.78;;;;;;;;;;4922927;29;20623;-76
2023/10/06 09:53:40;;;;;;;530.78;484.42;;;;;;;;;;4926844;29;20458;-75
2023/10/06 09:56:09;;;;;;;909.23;814.23;;;;;;;;;;4922735;29;20443;-73
2023/10/06 09:58:51;;;;;;;873.85;800.65;;;;;;;;;;4926581;29;21111;-73
2023/10/06 10:01:24;;;;;;;738.40;675.80;;;;;;;;;;4926810;29;20500;-73
2023/10/06 10:03:56;;;;;;;900.60;814.83;;;;;;;;;;4923016;29;20448;-73
2023/10/06 10:06:26;;;;;;;897.60;808.25;;;;;;;;;;4929760;29;20506;-73
2023/10/06 10:08:56;;;;;;;941.95;810.78;;;;;;;;;;4924797;29;20783;-76
2023/10/06 10:11:39;;;;;;;1003.20;786.47;;;;;;;;;;4929356;29;20443;-75
2023/10/06 10:14:06;;;;;;;1004.53;768.97;;;;;;;;;;4927091;29;20435;-75
2023/10/06 10:16:34;;;;;;;1002.78;759.05;;;;;;;;;;4914971;29;20544;-75
2023/10/06 10:19:03;;;;;;;1004.20;769.63;;;;;;;;;;4924669;29;20504;-76
2023/10/06 10:21:34;;;;;;;1016.10;793.33;;;;;;;;;;4930650;29;20506;-73
2023/10/06 10:24:09;;;;;;;1013.67;791.67;;;;;;;;;;4916730;29;20441;-73
2023/10/06 10:26:40;;;;;;;993.13;769.23;;;;;;;;;;4930381;28;20473;-73
2023/10/06 10:29:12;;;;;;;988.03;772.75;;;;;;;;;;4919897;29;20439;-73
2023/10/06 10:31:47;;;;;;;986.13;763.63;;;;;;;;;;4900708;29;20512;-73
2023/10/06 10:34:33;;;;;;;983.53;763.05;;;;;;;;;;4926806;29;20476;-72
2023/10/06 10:37:05;;;;;;;994.67;814.92;;;;;;;;;;4919756;29;20444;-73
2023/10/06 10:39:44;;;;;;;1008.67;804.10;;;;;;;;;;4919889;29;20445;-72
2023/10/06 10:42:12;;;;;;;1015.63;810.85;;;;;;;;;;4919149;29;20515;-74
2023/10/06 10:44:43;;;;;;;1003.95;802.75;;;;;;;;;;4929581;29;20442;-74
2023/10/06 10:47:10;;;;;;;998.03;795.03;;;;;;;;;;4930291;29;20439;-74
2023/10/06 10:49:38;;;;;;;1013.65;822.42;;;;;;;;;;4923449;29;20443;-73
2023/10/06 10:52:09;;;;;;;1008.53;819.95;;;;;;;;;;4924605;29;20544;-74
2023/10/06 10:54:40;;;;;;;1011.67;822.97;;;;;;;;;;4919463;29;20441;-74
2023/10/06 10:57:13;;;;;;;1020.53;923.55;;;;;;;;;;4926379;29;20892;-73
2023/10/06 11:02:45;;;;;;;1009.05;831.65;;;;;;;;;;4922942;29;20451;-73
2023/10/06 11:05:13;;;;;;;981.97;794.78;;;;;;;;;;4910699;29;20930;-74
2023/10/06 11:07:43;;;;;;;987.33;800.17;;;;;;;;;;4929976;29;20981;-74
2023/10/06 11:10:13;;;;;;;1012.55;835.58;;;;;;;;;;4920157;29;20450;-73
2023/10/06 11:12:40;;;;;;;1010.27;836.60;;;;;;;;;;4921305;29;20439;-73
2023/10/06 11:15:13;;;;;;;1031.23;869.10;;;;;;;;;;4921849;29;20439;-73
2023/10/06 11:17:42;;;;;;;1032.13;874.65;;;;;;;;;;4924049;29;20530;-73
2023/10/06 11:20:13;;;;;;;1047.82;895.53;;;;;;;;;;4914805;29;20449;-73
2023/10/06 11:22:52;;;;;;;1060.10;919.33;;;;;;;;;;4922370;29;20439;-73
2023/10/06 11:25:26;;;;;;;1050.68;904.38;;;;;;;;;;4921999;29;20443;-72
2023/10/06 11:27:56;;;;;;;1055.07;904.45;;;;;;;;;;4925396;29;20449;-73
2023/10/06 11:30:28;;;;;;;1053.35;904.17;;;;;;;;;;4925371;29;21000;-73
2023/10/06 11:32:58;;;;;;;1051.57;904.42;;;;;;;;;;4920236;29;20435;-72
2023/10/06 11:35:30;;;;;;;1036.15;885.58;;;;;;;;;;4919564;29;21825;-73
2023/10/06 11:38:00;;;;;;;1028.82;875.10;;;;;;;;;;4927290;29;20478;-75
2023/10/06 11:40:30;;;;;;;1041.60;885.08;;;;;;;;;;4905033;29;20439;-73
2023/10/06 11:43:18;;;;;;;1037.15;886.03;;;;;;;;;;4915837;29;20492;-74
2023/10/06 11:45:46;;;;;;;1056.60;932.85;;;;;;;;;;4914471;29;21068;-73
2023/10/06 11:48:34;;;;;;;1046.15;932.10;;;;;;;;;;4925465;29;20550;-74
2023/10/06 11:51:06;;;;;;;1046.15;951.92;;;;;;;;;;4915024;29;20571;-73
2023/10/06 11:53:35;;;;;;;1059.90;919.88;;;;;;;;;;4917804;29;20445;-74
2023/10/06 11:56:06;;;;;;;761.75;697.95;;;;;;;;;;4924865;29;20439;-72
2023/10/06 11:58:36;;;;;;;973.93;886.87;;;;;;;;;;4916829;29;20553;-74
2023/10/06 12:01:05;;;;;;;785.83;720.15;;;;;;;;;;4918552;29;20461;-72
2023/10/06 12:03:39;;;;;;;509.30;464.70;;;;;;;;;;4928392;29;20514;-72
2023/10/06 12:06:11;;;;;;;7.43;5.15;;;;;;;;;;4927640;29;20443;-73
2023/10/06 12:08:43;;;;;;;24.48;22.25;;;;;;;;;;4928868;29;20444;-73
2023/10/06 12:11:12;;;;;;;5.90;3.13;;;;;;;;;;4924511;29;20981;-74
2023/10/06 12:13:40;;;;;;;28.58;25.98;;;;;;;;;;4923196;29;20445;-72
2023/10/06 12:16:16;;;;;;;8.90;6.75;;;;;;;;;;4918052;29;20510;-73
2023/10/06 12:18:44;;;;;;;6.47;2.97;;;;;;;;;;4918281;29;20494;-74
2023/10/06 12:21:13;;;;;;;12.80;6.82;;;;;;;;;;4924999;29;20441;-73
2023/10/06 12:23:45;;;;;;;4.18;2.67;;;;;;;;;;4921084;29;20506;-73
2023/10/06 12:26:12;;;;;;;9.95;8.93;;;;;;;;;;4928543;29;20482;-72
2023/10/06 12:28:42;;;;;;;6.30;2.78;;;;;;;;;;4921016;29;20443;-73
2023/10/06 12:31:13;;;;;;;5.63;2.60;;;;;;;;;;4921085;29;20477;-73
2023/10/06 12:33:40;;;;;;;5.77;2.83;;;;;;;;;;4922726;29;20435;-74
2023/10/06 12:36:08;;;;;;;6.73;2.87;;;;;;;;;;4926368;29;20519;-72
2023/10/06 12:38:36;;;;;;;167.23;154.32;;;;;;;;;;4926149;29;20443;-73
2023/10/06 12:41:07;;;;;;;131.38;120.65;;;;;;;;;;4922398;29;20459;-73
2023/10/06 12:43:37;;;;;;;1092.38;998.08;;;;;;;;;;4921263;29;20449;-73
2023/10/06 12:46:04;;;;;;;994.83;913.93;;;;;;;;;;4919916;29;20451;-70
2023/10/06 12:48:38;;;;;;;430.23;393.33;;;;;;;;;;4925473;29;20443;-73
2023/10/06 12:51:06;;;;;;;402.50;368.63;;;;;;;;;;4915259;29;20481;-72
2023/10/06 12:53:33;;;;;;;795.35;728.63;;;;;;;;;;4920192;29;20498;-72
2023/10/06 12:56:04;;;;;;;413.73;379.00;;;;;;;;;;4915770;29;20530;-71
2023/10/06 12:58:31;;;;;;;653.78;599.45;;;;;;;;;;4922209;29;20795;-71
2023/10/06 13:00:59;;;;;;;864.88;794.80;;;;;;;;;;4930179;29;20977;-73
2023/10/06 13:03:27;;;;;;;711.22;650.95;;;;;;;;;;4920715;29;20442;-72
2023/10/06 13:06:00;;;;;;;56.90;52.70;;;;;;;;;;4922867;29;20450;-73
2023/10/06 13:08:30;;;;;;;527.72;481.27;;;;;;;;;;4920957;29;21428;-71
2023/10/06 13:11:03;;;;;;;1135.28;999.90;;;;;;;;;;4921561;29;20441;-72
2023/10/06 13:13:33;;;;;;;621.15;568.58;;;;;;;;;;4927725;29;20443;-73
2023/10/06 13:16:01;;;;;;;1107.90;999.90;;;;;;;;;;4920133;29;20496;-70
2023/10/06 13:18:28;;;;;;;1052.97;946.00;;;;;;;;;;4920536;29;20543;-71
2023/10/06 13:20:55;;;;;;;1069.18;947.83;;;;;;;;;;4923129;29;20762;-72
2023/10/06 13:23:26;;;;;;;1051.35;941.58;;;;;;;;;;4922318;29;20435;-71
2023/10/06 13:25:56;;;;;;;1043.20;873.50;;;;;;;;;;4906787;29;20463;-72
2023/10/06 13:28:24;;;;;;;1044.30;870.22;;;;;;;;;;4923308;29;20471;-73
2023/10/06 13:30:51;;;;;;;1034.55;849.10;;;;;;;;;;4923894;29;20447;-73
2023/10/06 13:33:19;;;;;;;1032.20;864.83;;;;;;;;;;4929636;29;20435;-71
2023/10/06 13:35:47;;;;;;;998.70;896.85;;;;;;;;;;4920912;29;20445;-72
2023/10/06 13:38:19;;;;;;;924.75;849.67;;;;;;;;;;4920842;29;20437;-72
2023/10/06 13:40:46;;;;;;;444.90;407.10;;;;;;;;;;4926765;29;20448;-71
2023/10/06 13:43:17;;;;;;;762.67;699.53;;;;;;;;;;4912522;29;20522;-71
2023/10/06 13:45:51;;;;;;;929.80;851.95;;;;;;;;;;4910424;29;20468;-72
2023/10/06 13:48:22;;;;;;;782.53;716.60;;;;;;;;;;4927842;29;20463;-72
2023/10/06 13:50:52;;;;;;;939.73;851.47;;;;;;;;;;4924684;29;21002;-73
2023/10/06 13:53:19;;;;;;;900.33;822.97;;;;;;;;;;4927479;29;20609;-72
2023/10/06 13:55:49;;;;;;;1009.60;852.40;;;;;;;;;;4922993;29;20491;-73
2023/10/06 13:58:17;;;;;;;970.45;865.67;;;;;;;;;;4926636;29;20526;-72
2023/10/06 14:00:44;;;;;;;863.13;789.28;;;;;;;;;;4918863;29;20497;-72
2023/10/06 14:03:19;;;;;;;942.15;845.10;;;;;;;;;;4923527;29;20453;-72
2023/10/06 14:05:55;;;;;;;1025.65;823.58;;;;;;;;;;4930042;29;20505;-73
2023/10/06 14:08:22;;;;;;;1023.67;818.00;;;;;;;;;;4926216;29;20445;-71
2023/10/06 14:10:50;;;;;;;1027.63;827.70;;;;;;;;;;4926106;29;20965;-72
2023/10/06 14:13:23;;;;;;;1020.60;827.83;;;;;;;;;;4921080;29;20476;-73
2023/10/06 14:16:09;;;;;;;1016.80;808.90;;;;;;;;;;4921856;29;20509;-71
2023/10/06 14:18:40;;;;;;;1032.88;831.58;;;;;;;;;;4928308;29;20522;-73
2023/10/06 14:21:09;;;;;;;1025.28;818.78;;;;;;;;;;4917215;29;20476;-73
2023/10/06 14:23:41;;;;;;;1030.05;818.45;;;;;;;;;;4928949;29;20459;-73
2023/10/06 14:26:10;;;;;;;928.17;831.73;;;;;;;;;;4912392;29;20459;-73